Time;durP1;ratioP1;P1;durP2;ratioP2;P2;SDS_P1;SDS_P2;PMS_P1;PMS_P2;Temp;Humidity;BMP_temperature;BMP_pressure;BME280_temperature;BME280_humidity;BME280_pressure;Samples;Min_cycle;Max_cycle;Signal;HPM_P1;HPM_P2
2023/03/03 00:00:10;;;;;;;52.23;20.40;;;4.10;99.90;;;;;;4986901;28;20057;-72
2023/03/03 00:02:35;;;;;;;47.43;19.87;;;4.10;99.90;;;;;;4978087;28;20045;-70
2023/03/03 00:05:01;;;;;;;57.47;21.70;;;4.10;99.90;;;;;;4991910;28;20030;-71
2023/03/03 00:07:27;;;;;;;48.50;20.60;;;4.00;99.90;;;;;;4978034;28;20027;-70
2023/03/03 00:09:52;;;;;;;50.20;19.23;;;4.00;99.90;;;;;;4972655;28;20384;-71
2023/03/03 00:12:27;;;;;;;47.50;21.57;;;4.00;99.90;;;;;;4986781;28;20031;-70
2023/03/03 00:14:53;;;;;;;43.50;19.73;;;4.00;99.90;;;;;;4973074;28;20066;-71
2023/03/03 00:17:27;;;;;;;41.93;19.27;;;4.00;99.90;;;;;;4983131;28;20077;-70
2023/03/03 00:19:54;;;;;;;46.43;18.70;;;3.90;99.90;;;;;;4976458;28;20026;-71
2023/03/03 00:22:39;;;;;;;42.33;18.67;;;3.90;99.90;;;;;;4986583;28;20031;-70
2023/03/03 00:25:32;;;;;;;47.73;20.70;;;3.90;99.90;;;;;;4980348;28;20049;-75
2023/03/03 00:28:15;;;;;;;46.67;20.20;;;3.90;99.90;;;;;;4985464;28;20110;-71
2023/03/03 00:30:40;;;;;;;47.97;19.83;;;3.90;99.90;;;;;;4977129;28;20030;-70
2023/03/03 00:33:27;;;;;;;49.80;19.33;;;3.90;99.90;;;;;;4981143;28;20094;-76
2023/03/03 00:35:54;;;;;;;44.80;19.50;;;3.90;99.90;;;;;;4990021;28;20041;-71
2023/03/03 00:38:19;;;;;;;47.90;20.17;;;3.90;99.90;;;;;;4978488;28;20025;-71
2023/03/03 00:40:46;;;;;;;47.10;20.03;;;3.90;99.90;;;;;;4989086;28;20098;-71
2023/03/03 00:43:33;;;;;;;48.27;19.67;;;3.90;99.90;;;;;;4983885;28;20026;-71
2023/03/03 00:45:59;;;;;;;46.30;21.13;;;3.90;99.90;;;;;;4978020;28;20491;-71
2023/03/03 00:48:28;;;;;;;46.23;20.50;;;3.90;99.90;;;;;;4990647;28;20090;-70
2023/03/03 00:50:56;;;;;;;42.27;20.00;;;3.90;99.90;;;;;;4983925;28;20026;-70
2023/03/03 00:53:23;;;;;;;50.90;21.50;;;3.80;99.90;;;;;;4983115;28;20066;-71
2023/03/03 00:55:50;;;;;;;44.87;19.93;;;3.70;99.90;;;;;;4989224;28;20407;-72
2023/03/03 00:58:17;;;;;;;46.87;20.43;;;3.70;99.90;;;;;;4974075;28;20540;-70
2023/03/03 01:00:43;;;;;;;48.13;20.40;;;3.70;99.90;;;;;;4982219;28;20070;-70
2023/03/03 01:03:13;;;;;;;46.63;20.30;;;3.60;99.90;;;;;;4983141;28;20121;-71
2023/03/03 01:05:39;;;;;;;52.90;21.73;;;3.60;99.90;;;;;;4988131;28;20117;-71
2023/03/03 01:08:05;;;;;;;50.13;21.13;;;3.60;99.90;;;;;;4978398;28;20122;-77
2023/03/03 01:10:36;;;;;;;45.57;20.73;;;3.50;99.90;;;;;;4986887;28;20435;-70
2023/03/03 01:13:03;;;;;;;45.10;20.07;;;3.50;99.90;;;;;;4975775;28;20042;-70
2023/03/03 01:15:28;;;;;;;47.40;21.13;;;3.50;99.90;;;;;;4973969;28;20062;-70
2023/03/03 01:17:55;;;;;;;41.70;18.30;;;3.50;99.90;;;;;;4974704;28;20416;-70
2023/03/03 01:20:21;;;;;;;50.03;20.63;;;3.50;99.90;;;;;;4975104;28;20072;-70
2023/03/03 01:22:46;;;;;;;43.77;19.37;;;3.50;99.90;;;;;;4974671;28;20035;-70
2023/03/03 01:25:12;;;;;;;48.03;19.87;;;3.60;99.90;;;;;;4982926;28;20430;-70
2023/03/03 01:27:38;;;;;;;46.50;19.97;;;3.60;99.90;;;;;;4993920;28;20033;-70
2023/03/03 01:30:05;;;;;;;50.73;20.50;;;3.50;99.90;;;;;;4995149;28;20030;-70
2023/03/03 01:32:31;;;;;;;49.83;20.97;;;3.50;99.90;;;;;;4993427;28;20066;-70
2023/03/03 01:34:57;;;;;;;44.13;20.40;;;3.50;99.90;;;;;;4993680;28;20169;-70
2023/03/03 01:37:23;;;;;;;46.03;20.30;;;3.40;99.90;;;;;;4994319;28;20070;-70
2023/03/03 01:39:52;;;;;;;46.30;20.77;;;3.40;99.90;;;;;;4994725;28;20022;-70
2023/03/03 01:42:19;;;;;;;46.93;20.00;;;3.50;99.90;;;;;;4994010;28;20484;-70
2023/03/03 01:44:44;;;;;;;46.93;22.27;;;3.50;99.90;;;;;;4993372;28;20072;-70
2023/03/03 01:47:12;;;;;;;44.50;19.93;;;3.50;99.90;;;;;;4993006;28;20026;-71
2023/03/03 01:50:10;;;;;;;48.77;21.63;;;3.50;99.90;;;;;;4993612;28;20057;-70
2023/03/03 01:52:39;;;;;;;55.43;21.97;;;3.40;99.90;;;;;;4991661;28;20046;-70
2023/03/03 01:55:29;;;;;;;50.03;21.73;;;3.50;99.90;;;;;;4994083;28;20057;-70
2023/03/03 01:58:04;;;;;;;48.50;21.30;;;3.40;99.90;;;;;;4994595;28;20026;-70
2023/03/03 02:00:31;;;;;;;53.27;21.63;;;3.40;99.90;;;;;;4976307;28;20076;-70
2023/03/03 02:02:57;;;;;;;49.67;21.10;;;3.40;99.90;;;;;;4976989;28;20034;-70
2023/03/03 02:05:23;;;;;;;45.40;21.10;;;3.40;99.90;;;;;;4976018;28;20061;-70
2023/03/03 02:07:50;;;;;;;45.23;20.23;;;3.30;99.90;;;;;;4976919;28;20030;-70
2023/03/03 02:10:20;;;;;;;44.03;20.50;;;3.20;99.90;;;;;;4975896;28;20031;-70
2023/03/03 02:12:50;;;;;;;44.53;20.57;;;3.20;99.90;;;;;;4994311;28;20035;-70
2023/03/03 02:15:31;;;;;;;46.67;20.70;;;3.30;99.90;;;;;;4993783;28;20030;-70
2023/03/03 02:18:00;;;;;;;47.07;20.03;;;3.30;99.90;;;;;;4977080;28;20026;-70
2023/03/03 02:20:29;;;;;;;53.37;21.63;;;3.30;99.90;;;;;;4993802;28;20034;-70
2023/03/03 02:23:01;;;;;;;48.47;21.03;;;3.30;99.90;;;;;;4976799;28;20057;-70
2023/03/03 02:25:51;;;;;;;47.23;20.87;;;3.30;99.90;;;;;;4975973;28;20832;-70
2023/03/03 02:28:16;;;;;;;43.60;19.77;;;3.30;99.90;;;;;;4993263;28;20030;-70
2023/03/03 02:30:43;;;;;;;39.13;17.07;;;3.30;99.90;;;;;;4993916;28;20045;-70
2023/03/03 02:33:08;;;;;;;37.97;16.30;;;3.30;99.90;;;;;;4976358;28;20080;-73
2023/03/03 02:35:37;;;;;;;38.23;16.63;;;3.30;99.90;;;;;;4975661;28;20061;-70
2023/03/03 02:38:08;;;;;;;36.87;15.33;;;3.30;99.90;;;;;;4993633;28;20022;-70
2023/03/03 02:40:39;;;;;;;37.37;15.70;;;3.30;99.90;;;;;;4993239;28;20026;-70
2023/03/03 02:43:07;;;;;;;37.47;16.23;;;3.20;99.90;;;;;;4993450;28;20495;-69
2023/03/03 02:45:32;;;;;;;36.33;15.97;;;3.30;99.90;;;;;;4975433;28;20027;-70
2023/03/03 02:47:58;;;;;;;39.53;16.47;;;3.30;99.90;;;;;;4993693;28;20102;-70
2023/03/03 02:50:24;;;;;;;41.40;16.70;;;3.30;99.90;;;;;;4975265;28;20526;-70
2023/03/03 02:52:49;;;;;;;36.33;14.90;;;3.20;99.90;;;;;;4975451;28;20097;-70
2023/03/03 02:55:15;;;;;;;32.83;12.73;;;3.20;99.90;;;;;;4992161;28;20483;-70
2023/03/03 02:57:40;;;;;;;24.33;11.77;;;3.20;99.90;;;;;;4975492;28;20030;-70
2023/03/03 03:00:07;;;;;;;32.90;13.80;;;3.20;99.90;;;;;;4993351;28;20034;-70
2023/03/03 03:02:32;;;;;;;32.90;12.93;;;3.10;99.90;;;;;;4992419;28;20098;-70
2023/03/03 03:04:59;;;;;;;30.17;13.37;;;3.10;99.90;;;;;;4992859;28;20406;-70
2023/03/03 03:07:24;;;;;;;31.07;13.20;;;3.00;99.90;;;;;;4992493;28;20110;-70
2023/03/03 03:09:50;;;;;;;36.43;14.70;;;3.00;99.90;;;;;;4993181;28;20368;-70
2023/03/03 03:12:18;;;;;;;32.73;14.17;;;2.90;99.90;;;;;;4974946;28;20038;-71
2023/03/03 03:14:43;;;;;;;26.07;12.60;;;2.90;99.90;;;;;;4993183;28;20026;-70
2023/03/03 03:17:10;;;;;;;29.67;12.83;;;2.80;99.90;;;;;;4975715;28;20026;-69
2023/03/03 03:19:36;;;;;;;32.90;13.57;;;2.80;99.90;;;;;;4975024;28;20031;-69
2023/03/03 03:22:01;;;;;;;27.43;12.77;;;2.70;99.90;;;;;;4992700;28;20041;-69
2023/03/03 03:24:27;;;;;;;29.53;13.43;;;2.70;99.90;;;;;;4974831;28;20038;-69
2023/03/03 03:26:52;;;;;;;31.60;13.30;;;2.70;99.90;;;;;;4975507;28;20483;-69
2023/03/03 03:29:18;;;;;;;28.83;13.03;;;2.70;99.90;;;;;;4992226;28;20034;-70
2023/03/03 03:31:43;;;;;;;29.20;13.03;;;2.60;99.90;;;;;;4992764;28;20058;-70
2023/03/03 03:34:09;;;;;;;31.93;13.07;;;2.60;99.90;;;;;;4975253;28;20042;-69
2023/03/03 03:36:36;;;;;;;29.17;12.43;;;2.50;99.90;;;;;;4980739;28;20027;-70
2023/03/03 03:39:05;;;;;;;25.60;12.03;;;2.50;99.90;;;;;;4973663;28;20477;-69
2023/03/03 03:41:30;;;;;;;33.13;13.63;;;2.50;99.90;;;;;;4955603;28;20038;-69
2023/03/03 03:43:56;;;;;;;34.37;13.67;;;2.50;99.90;;;;;;4956130;28;20035;-70
2023/03/03 03:46:21;;;;;;;30.20;13.73;;;2.40;99.90;;;;;;4972569;28;20027;-70
2023/03/03 03:48:47;;;;;;;29.53;13.47;;;2.30;99.90;;;;;;4956269;28;20090;-69
2023/03/03 03:51:13;;;;;;;33.03;14.57;;;2.30;99.90;;;;;;4956051;28;20460;-72
2023/03/03 03:53:39;;;;;;;33.03;15.33;;;2.20;99.90;;;;;;4955346;28;20520;-70
2023/03/03 03:56:05;;;;;;;32.13;14.63;;;2.00;99.90;;;;;;4967535;28;20131;-69
2023/03/03 03:58:30;;;;;;;36.37;15.63;;;1.90;99.90;;;;;;4971223;28;20062;-70
2023/03/03 04:01:05;;;;;;;35.93;15.37;;;1.90;99.90;;;;;;4972081;28;20062;-69
2023/03/03 04:03:30;;;;;;;31.90;15.07;;;1.80;99.90;;;;;;4971356;28;20472;-70
2023/03/03 04:05:56;;;;;;;36.40;15.73;;;1.90;99.90;;;;;;4972049;28;20046;-69
2023/03/03 04:08:22;;;;;;;35.30;15.97;;;1.90;99.90;;;;;;4974141;28;20030;-70
2023/03/03 04:10:47;;;;;;;37.57;16.53;;;1.80;99.90;;;;;;4976884;28;20038;-70
2023/03/03 04:13:13;;;;;;;32.87;15.50;;;1.70;99.90;;;;;;4977055;28;20423;-69
2023/03/03 04:15:38;;;;;;;32.70;15.27;;;1.80;99.90;;;;;;4975090;28;20031;-70
2023/03/03 04:18:04;;;;;;;36.40;15.67;;;1.60;99.90;;;;;;4975739;28;20031;-69
2023/03/03 04:20:30;;;;;;;36.53;15.47;;;1.60;99.90;;;;;;4976143;28;20027;-69
2023/03/03 04:22:56;;;;;;;39.97;16.80;;;1.60;99.90;;;;;;4976945;28;20082;-69
2023/03/03 04:25:22;;;;;;;37.30;15.30;;;1.70;99.90;;;;;;4974792;28;20121;-70
2023/03/03 04:27:48;;;;;;;37.17;15.47;;;1.60;99.90;;;;;;4975501;28;20030;-69
2023/03/03 04:30:15;;;;;;;39.57;16.97;;;1.60;99.90;;;;;;4975569;28;20026;-69
2023/03/03 04:32:41;;;;;;;41.27;17.43;;;1.60;99.90;;;;;;4974784;28;20035;-70
2023/03/03 04:35:07;;;;;;;44.13;18.03;;;1.70;99.90;;;;;;4976250;28;20038;-70
2023/03/03 04:37:33;;;;;;;45.20;18.23;;;1.70;99.90;;;;;;4974620;28;20538;-70
2023/03/03 04:39:58;;;;;;;43.57;18.90;;;1.60;99.90;;;;;;4975360;28;20031;-70
2023/03/03 04:42:26;;;;;;;44.60;19.63;;;1.60;99.90;;;;;;4974549;28;20027;-71
2023/03/03 04:44:52;;;;;;;47.00;18.77;;;1.70;99.90;;;;;;4975101;28;20030;-70
2023/03/03 04:47:18;;;;;;;48.17;18.83;;;1.70;99.90;;;;;;4975759;28;20022;-74
2023/03/03 04:49:43;;;;;;;39.77;17.77;;;1.80;99.90;;;;;;4974791;28;20483;-70
2023/03/03 04:52:09;;;;;;;43.23;18.23;;;1.70;99.90;;;;;;4976323;28;20086;-70
2023/03/03 04:54:35;;;;;;;40.20;17.03;;;1.70;99.90;;;;;;4974218;28;20072;-70
2023/03/03 04:57:00;;;;;;;48.53;19.30;;;1.80;99.90;;;;;;4963242;28;20084;-70
2023/03/03 04:59:26;;;;;;;40.83;17.77;;;1.80;99.90;;;;;;4995195;28;20041;-70
2023/03/03 05:01:51;;;;;;;44.43;18.87;;;1.70;99.90;;;;;;4984111;28;20061;-70
2023/03/03 05:04:17;;;;;;;43.17;18.50;;;1.60;99.90;;;;;;4990926;28;20043;-75
2023/03/03 05:06:43;;;;;;;46.63;18.80;;;1.50;99.90;;;;;;4959186;28;20431;-70
2023/03/03 05:09:08;;;;;;;42.13;18.97;;;1.40;99.90;;;;;;4958770;28;20019;-70
2023/03/03 05:11:34;;;;;;;38.73;17.77;;;1.40;99.90;;;;;;4975133;28;20031;-70
2023/03/03 05:14:01;;;;;;;43.87;18.33;;;1.30;99.90;;;;;;4958863;28;20023;-70
2023/03/03 05:16:28;;;;;;;43.27;18.97;;;1.30;99.90;;;;;;4975180;28;20026;-69
2023/03/03 05:18:53;;;;;;;43.60;18.50;;;1.30;99.90;;;;;;4957947;28;20034;-70
2023/03/03 05:21:20;;;;;;;42.80;18.27;;;1.30;99.90;;;;;;4958075;28;20031;-74
2023/03/03 05:23:45;;;;;;;39.73;17.27;;;1.20;99.90;;;;;;4988979;28;20109;-70
2023/03/03 05:26:11;;;;;;;49.00;18.43;;;1.20;99.90;;;;;;4977448;28;20115;-69
2023/03/03 05:28:36;;;;;;;39.47;17.90;;;1.20;99.90;;;;;;4976890;28;20033;-70
2023/03/03 05:31:02;;;;;;;46.07;17.87;;;1.20;99.90;;;;;;4995021;28;20037;-70
2023/03/03 05:33:28;;;;;;;42.53;17.90;;;1.20;99.90;;;;;;4976752;28;20407;-70
2023/03/03 05:35:55;;;;;;;42.13;17.40;;;1.10;99.90;;;;;;4977502;28;20050;-70
2023/03/03 05:38:21;;;;;;;41.83;18.63;;;1.10;99.90;;;;;;4977033;28;20145;-74
2023/03/03 05:40:47;;;;;;;48.33;19.53;;;1.10;99.90;;;;;;4994855;28;20045;-70
2023/03/03 05:43:13;;;;;;;46.00;18.27;;;1.10;99.90;;;;;;4994662;28;20027;-70
2023/03/03 05:45:38;;;;;;;44.90;18.77;;;1.10;99.90;;;;;;4976756;28;20701;-70
2023/03/03 05:48:04;;;;;;;46.30;19.37;;;1.20;99.90;;;;;;4977347;28;20030;-70
2023/03/03 05:50:31;;;;;;;46.50;19.57;;;1.20;99.90;;;;;;4976548;28;20034;-70
2023/03/03 05:52:57;;;;;;;47.27;18.97;;;1.20;99.90;;;;;;4977125;28;20506;-70
2023/03/03 05:55:22;;;;;;;46.80;20.03;;;1.20;99.90;;;;;;4982214;28;20109;-73
2023/03/03 05:57:48;;;;;;;50.63;20.60;;;1.20;99.90;;;;;;4994442;28;20034;-70
2023/03/03 06:00:15;;;;;;;49.17;20.63;;;1.10;99.90;;;;;;4980644;28;20388;-70
2023/03/03 06:02:41;;;;;;;44.80;19.13;;;1.20;99.90;;;;;;4974548;28;20503;-70
2023/03/03 06:05:08;;;;;;;50.60;20.50;;;1.30;99.90;;;;;;4973820;28;20035;-69
2023/03/03 06:07:34;;;;;;;44.27;20.17;;;1.30;99.90;;;;;;4974284;28;20026;-70
2023/03/03 06:09:59;;;;;;;46.17;19.40;;;1.30;99.90;;;;;;4974923;28;20444;-70
2023/03/03 06:12:25;;;;;;;48.83;21.17;;;1.40;99.90;;;;;;4973956;28;20034;-71
2023/03/03 06:14:51;;;;;;;45.00;19.83;;;1.40;99.90;;;;;;4973907;28;20030;-70
2023/03/03 06:17:16;;;;;;;49.23;20.13;;;1.50;99.90;;;;;;4973541;28;20526;-70
2023/03/03 06:19:42;;;;;;;50.97;20.87;;;1.60;99.90;;;;;;4973741;28;20025;-70
2023/03/03 06:22:08;;;;;;;54.60;20.87;;;1.70;99.90;;;;;;4973623;28;20464;-70
2023/03/03 06:24:33;;;;;;;49.57;21.10;;;1.70;99.90;;;;;;4974246;28;20114;-70
2023/03/03 06:27:00;;;;;;;45.90;19.73;;;1.70;99.90;;;;;;4974520;28;20105;-70
2023/03/03 06:29:27;;;;;;;44.53;18.27;;;1.70;99.90;;;;;;4973892;28;20075;-74
2023/03/03 06:31:52;;;;;;;46.50;18.33;;;1.80;99.90;;;;;;4973729;28;20113;-70
2023/03/03 06:34:18;;;;;;;44.80;18.50;;;1.90;99.90;;;;;;4974257;28;20110;-70
2023/03/03 06:36:44;;;;;;;40.73;17.37;;;1.90;99.90;;;;;;4972493;28;20624;-70
2023/03/03 06:39:10;;;;;;;46.63;18.60;;;1.80;99.90;;;;;;4974850;28;20031;-70
2023/03/03 06:41:36;;;;;;;44.77;18.20;;;1.80;99.90;;;;;;4972535;28;20027;-70
2023/03/03 06:44:02;;;;;;;46.27;18.40;;;1.90;99.90;;;;;;4973218;28;20468;-70
2023/03/03 06:46:28;;;;;;;38.00;16.80;;;1.90;99.90;;;;;;4972323;28;20033;-70
2023/03/03 06:48:53;;;;;;;38.97;16.73;;;1.90;99.90;;;;;;4973137;28;20027;-70
2023/03/03 06:51:37;;;;;;;37.63;15.77;;;1.90;99.90;;;;;;4974239;28;20045;-70
2023/03/03 06:54:11;;;;;;;30.50;13.90;;;2.00;99.90;;;;;;4974348;28;20027;-70
2023/03/03 06:56:37;;;;;;;29.40;14.20;;;2.00;99.90;;;;;;4971991;28;20451;-71
2023/03/03 06:59:15;;;;;;;35.27;14.00;;;2.10;99.90;;;;;;4972831;28;20030;-70
2023/03/03 07:01:42;;;;;;;37.30;15.17;;;2.20;99.90;;;;;;4973662;28;20031;-70
2023/03/03 07:04:30;;;;;;;30.57;14.63;;;2.20;99.90;;;;;;4972842;28;20046;-70
2023/03/03 07:07:20;;;;;;;30.67;13.53;;;2.20;99.90;;;;;;4972829;28;20045;-70
2023/03/03 07:09:48;;;;;;;27.40;13.13;;;2.20;99.90;;;;;;4961413;28;20039;-70
2023/03/03 07:12:28;;;;;;;28.33;13.43;;;2.20;99.90;;;;;;4972383;28;20031;-70
2023/03/03 07:15:20;;;;;;;33.43;14.43;;;2.30;99.90;;;;;;4973629;28;20031;-70
2023/03/03 07:17:51;;;;;;;;;;;2.30;99.90;;;;;;4962223;28;20181;-70
2023/03/03 07:20:20;;;;;;;26.23;11.90;;;2.30;99.90;;;;;;4972523;28;19984;-70
2023/03/03 07:22:46;;;;;;;28.23;13.30;;;2.30;99.90;;;;;;4971839;28;20112;-70
2023/03/03 07:25:42;;;;;;;26.13;12.57;;;2.30;99.90;;;;;;4973767;28;20493;-70
2023/03/03 07:28:22;;;;;;;28.70;12.60;;;2.40;99.90;;;;;;4957509;28;20600;-70
2023/03/03 07:30:47;;;;;;;25.20;12.87;;;2.50;99.90;;;;;;4971759;28;20114;-70
2023/03/03 07:33:26;;;;;;;22.70;11.50;;;2.50;99.90;;;;;;4973602;28;20405;-70
2023/03/03 07:35:54;;;;;;;26.07;12.03;;;2.50;99.90;;;;;;4972053;28;20496;-70
2023/03/03 07:38:35;;;;;;;26.83;12.27;;;2.60;99.90;;;;;;4972619;28;20027;-70
2023/03/03 07:41:04;;;;;;;26.00;12.30;;;2.60;99.90;;;;;;4990650;28;20026;-70
2023/03/03 07:43:36;;;;;;;26.43;12.43;;;2.70;99.90;;;;;;4992220;28;20525;-72
2023/03/03 07:46:24;;;;;;;24.80;12.23;;;2.80;99.90;;;;;;4993014;28;20031;-70
2023/03/03 07:48:51;;;;;;;29.23;12.63;;;2.90;99.90;;;;;;4992107;28;20022;-70
2023/03/03 07:51:28;;;;;;;25.93;12.47;;;2.90;99.90;;;;;;4992884;28;20031;-70
2023/03/03 07:54:37;;;;;;;25.27;12.50;;;2.90;99.90;;;;;;4990882;28;20129;-70
2023/03/03 07:57:26;;;;;;;25.63;11.90;;;3.00;99.90;;;;;;4984371;28;20047;-69
2023/03/03 08:00:07;;;;;;;27.37;12.27;;;3.00;99.90;;;;;;4990549;28;20044;-69
2023/03/03 08:02:42;;;;;;;28.00;12.43;;;3.00;99.90;;;;;;4992094;28;20431;-69
2023/03/03 08:05:26;;;;;;;25.10;11.67;;;2.90;99.90;;;;;;4991604;28;20053;-69
2023/03/03 08:07:51;;;;;;;26.50;12.83;;;2.90;99.90;;;;;;4990626;28;20041;-69
2023/03/03 08:10:46;;;;;;;25.37;11.43;;;2.90;99.90;;;;;;4991335;28;20113;-69
2023/03/03 08:13:21;;;;;;;26.57;12.27;;;2.90;99.90;;;;;;4992438;28;20041;-69
2023/03/03 08:15:50;;;;;;;26.43;11.83;;;2.90;99.90;;;;;;4991613;28;20033;-69
2023/03/03 08:18:47;;;;;;;28.07;11.73;;;2.90;99.90;;;;;;4992584;28;20062;-69
2023/03/03 08:21:22;;;;;;;24.43;11.47;;;2.90;99.90;;;;;;4990909;28;20399;-69
2023/03/03 08:23:52;;;;;;;26.63;12.40;;;2.90;99.90;;;;;;4990527;28;20499;-69
2023/03/03 08:26:19;;;;;;;26.80;11.80;;;2.90;99.90;;;;;;4990213;28;20121;-69
2023/03/03 08:28:45;;;;;;;30.27;12.87;;;2.90;99.90;;;;;;4990244;28;20026;-69
2023/03/03 08:31:11;;;;;;;26.03;12.57;;;2.90;99.90;;;;;;4992455;28;20129;-69
2023/03/03 08:33:37;;;;;;;25.17;12.17;;;2.90;99.90;;;;;;4990326;28;20043;-70
2023/03/03 08:36:04;;;;;;;27.17;13.67;;;2.90;99.90;;;;;;4991125;28;20129;-69
2023/03/03 08:38:30;;;;;;;27.87;13.10;;;3.00;99.90;;;;;;4990375;28;20026;-74
2023/03/03 08:40:55;;;;;;;26.17;13.23;;;3.00;99.90;;;;;;4977535;28;20028;-69
2023/03/03 08:43:21;;;;;;;28.00;13.47;;;3.00;99.90;;;;;;4985576;28;20475;-69
2023/03/03 08:45:52;;;;;;;28.07;13.90;;;3.00;99.90;;;;;;4982595;28;20023;-69
2023/03/03 08:48:19;;;;;;;26.20;13.73;;;3.10;99.90;;;;;;4985535;28;20027;-69
2023/03/03 08:50:45;;;;;;;28.43;14.07;;;3.10;99.90;;;;;;4988105;28;20024;-69
2023/03/03 08:53:13;;;;;;;31.23;15.00;;;3.10;99.90;;;;;;4987404;28;20034;-70
2023/03/03 08:55:39;;;;;;;29.77;14.23;;;3.10;99.90;;;;;;4989420;28;20043;-69
2023/03/03 08:58:05;;;;;;;28.87;14.73;;;3.10;99.90;;;;;;4975714;28;20034;-69
2023/03/03 09:00:31;;;;;;;30.40;13.80;;;3.20;99.90;;;;;;4977269;28;20023;-73
2023/03/03 09:02:57;;;;;;;29.77;13.87;;;3.20;99.90;;;;;;4993506;28;20026;-69
2023/03/03 09:05:23;;;;;;;34.87;15.47;;;3.20;99.90;;;;;;4994747;28;20041;-69
2023/03/03 09:07:52;;;;;;;30.77;15.60;;;3.30;99.90;;;;;;4968221;28;20073;-69
2023/03/03 09:10:26;;;;;;;32.67;14.83;;;3.40;99.90;;;;;;4976505;28;20041;-70
2023/03/03 09:12:52;;;;;;;27.80;13.90;;;3.40;99.90;;;;;;4958324;28;20153;-70
2023/03/03 09:15:27;;;;;;;32.43;16.20;;;3.40;99.90;;;;;;4989968;28;20023;-69
2023/03/03 09:17:56;;;;;;;34.73;16.03;;;3.50;99.90;;;;;;4973405;28;20062;-69
2023/03/03 09:20:43;;;;;;;33.10;15.83;;;3.50;99.90;;;;;;4982712;28;20036;-69
2023/03/03 09:23:29;;;;;;;34.30;15.90;;;3.50;99.90;;;;;;4980178;28;20649;-69
2023/03/03 09:25:55;;;;;;;38.43;18.40;;;3.60;99.90;;;;;;4956755;28;20494;-69
2023/03/03 09:28:28;;;;;;;38.83;16.50;;;3.70;99.90;;;;;;4975143;28;20507;-69
2023/03/03 09:30:58;;;;;;;35.03;15.73;;;3.70;99.90;;;;;;4974763;28;20027;-70
2023/03/03 09:33:27;;;;;;;36.07;17.07;;;3.80;99.90;;;;;;4973125;28;20042;-69
2023/03/03 09:36:14;;;;;;;34.70;16.47;;;3.90;99.90;;;;;;4969039;28;20690;-69
2023/03/03 09:38:42;;;;;;;34.10;15.50;;;3.90;99.90;;;;;;4984918;28;20587;-70
2023/03/03 09:41:52;;;;;;;33.90;16.40;;;3.90;99.90;;;;;;4980356;28;20411;-69
2023/03/03 09:44:36;;;;;;;34.50;16.27;;;4.00;99.90;;;;;;4963985;28;20038;-69
2023/03/03 09:47:13;;;;;;;39.60;16.43;;;4.10;99.90;;;;;;4957989;28;20461;-71
2023/03/03 09:49:56;;;;;;;34.57;16.07;;;4.10;99.90;;;;;;4990391;28;20093;-69
2023/03/03 09:52:52;;;;;;;39.27;16.07;;;4.20;99.90;;;;;;4965746;28;20442;-69
2023/03/03 09:55:23;;;;;;;38.83;16.13;;;4.30;99.90;;;;;;4966461;28;20050;-69
2023/03/03 09:58:14;;;;;;;31.25;14.75;;;4.30;99.90;;;;;;4977842;28;20019;-69
2023/03/03 10:01:01;;;;;;;34.57;15.93;;;4.40;99.90;;;;;;4982214;28;20387;-71
2023/03/03 10:04:04;;;;;;;32.27;14.90;;;4.40;99.90;;;;;;4991059;28;20066;-71
2023/03/03 10:06:45;;;;;;;34.17;15.53;;;4.50;99.90;;;;;;4983931;28;20498;-71
2023/03/03 10:09:35;;;;;;;30.63;14.10;;;4.60;99.90;;;;;;4993181;28;20077;-69
2023/03/03 10:12:04;;;;;;;31.90;14.87;;;4.60;99.90;;;;;;4974407;28;20030;-71
2023/03/03 10:14:45;;;;;;;36.27;16.00;;;4.70;99.90;;;;;;4983778;28;20451;-71
2023/03/03 10:17:23;;;;;;;36.37;14.83;;;4.80;99.90;;;;;;4984328;28;20022;-70
2023/03/03 10:19:51;;;;;;;34.13;16.07;;;4.90;99.90;;;;;;4981775;28;20026;-71
2023/03/03 10:22:23;;;;;;;35.90;15.33;;;4.90;99.90;;;;;;4979536;28;20054;-70
2023/03/03 10:25:04;;;;;;;35.30;14.57;;;5.00;99.90;;;;;;4992559;28;20026;-72
2023/03/03 10:27:42;;;;;;;36.47;15.43;;;5.10;99.90;;;;;;4991712;28;20551;-70
2023/03/03 10:30:19;;;;;;;35.53;14.43;;;5.10;99.90;;;;;;4988613;28;20093;-74
2023/03/03 10:33:00;;;;;;;30.03;14.00;;;5.20;99.90;;;;;;4990937;28;20042;-73
2023/03/03 10:35:44;;;;;;;33.67;14.73;;;5.30;99.90;;;;;;4976053;28;20479;-73
2023/03/03 10:38:45;;;;;;;32.57;15.33;;;5.40;99.90;;;;;;4987267;28;20026;-75
2023/03/03 10:41:25;;;;;;;31.87;14.23;;;5.40;99.90;;;;;;4975380;28;20027;-71
2023/03/03 10:44:07;;;;;;;32.20;14.33;;;5.40;99.90;;;;;;4983493;28;20260;-72
2023/03/03 10:46:48;;;;;;;29.42;14.52;;;5.60;99.90;;;;;;4981907;28;20026;-76
2023/03/03 10:49:52;;;;;;;32.75;13.98;;;5.60;99.90;;;;;;4992436;28;20034;-72
2023/03/03 10:52:51;;;;;;;31.40;14.57;;;5.60;99.90;;;;;;4921388;29;20071;-72
2023/03/03 10:55:37;;;;;;;37.40;15.00;;;5.60;99.90;;;;;;4984322;28;20522;-71
2023/03/03 10:58:02;;;;;;;33.03;15.57;;;5.60;99.90;;;;;;4978155;28;20057;-71
2023/03/03 11:01:03;;;;;;;31.67;15.17;;;5.70;99.90;;;;;;4983017;28;20045;-72
2023/03/03 11:04:22;;;;;;;35.30;15.90;;;5.70;99.90;;;;;;4974478;28;20067;-72
2023/03/03 11:06:50;;;;;;;34.53;15.30;;;5.80;99.90;;;;;;4979201;28;20054;-73
2023/03/03 11:09:31;;;;;;;33.70;15.37;;;5.90;99.90;;;;;;4977032;28;20031;-74
2023/03/03 11:12:32;;;;;;;29.73;13.97;;;6.00;99.90;;;;;;4972833;28;20037;-74
2023/03/03 11:15:17;;;;;;;33.87;14.60;;;6.00;99.90;;;;;;4964173;28;20078;-74
2023/03/03 11:18:09;;;;;;;30.63;14.03;;;6.10;99.90;;;;;;4974629;28;20379;-74
2023/03/03 11:20:52;;;;;;;33.95;13.73;;;6.30;99.90;;;;;;4983824;28;20040;-75
2023/03/03 11:23:42;;;;;;;31.80;14.43;;;6.30;99.90;;;;;;4976664;28;20126;-74
2023/03/03 11:26:22;;;;;;;29.63;13.77;;;6.40;99.90;;;;;;4979682;28;20079;-75
2023/03/03 11:29:25;;;;;;;30.63;14.40;;;6.40;99.90;;;;;;4974754;28;20031;-74
2023/03/03 11:31:59;;;;;;;34.13;14.73;;;6.40;99.90;;;;;;4972138;28;20038;-73
2023/03/03 11:34:46;;;;;;;29.83;14.93;;;6.50;99.90;;;;;;4972604;28;20045;-73
2023/03/03 11:37:22;;;;;;;30.83;14.43;;;6.50;99.90;;;;;;4972384;28;20023;-74
2023/03/03 11:39:50;;;;;;;30.37;14.73;;;6.50;99.90;;;;;;4985682;28;20046;-74
2023/03/03 11:42:39;;;;;;;33.83;15.80;;;6.60;99.90;;;;;;4992558;28;20034;-74
2023/03/03 11:45:17;;;;;;;30.60;14.70;;;6.70;99.90;;;;;;4992288;28;20068;-73
2023/03/03 11:47:53;;;;;;;31.67;14.80;;;6.80;99.90;;;;;;4992332;28;20384;-74
2023/03/03 11:50:30;;;;;;;30.33;14.23;;;6.90;99.90;;;;;;4992082;28;20379;-74
2023/03/03 11:53:23;;;;;;;34.63;15.27;;;6.90;99.90;;;;;;4992684;28;20030;-73
2023/03/03 11:55:58;;;;;;;32.33;15.47;;;7.00;99.90;;;;;;4992471;28;20046;-73
2023/03/03 11:58:31;;;;;;;34.87;15.10;;;7.10;99.90;;;;;;4993068;28;20033;-73
2023/03/03 12:01:10;;;;;;;33.73;14.63;;;7.10;99.90;;;;;;4975439;28;20104;-73
2023/03/03 12:03:56;;;;;;;32.83;15.97;;;7.20;99.90;;;;;;4992790;28;20100;-73
2023/03/03 12:06:31;;;;;;;31.83;14.67;;;7.30;99.90;;;;;;4993401;28;20431;-73
2023/03/03 12:09:11;;;;;;;32.73;15.70;;;7.40;99.90;;;;;;4992762;28;20022;-73
2023/03/03 12:11:58;;;;;;;31.13;14.97;;;7.40;99.90;;;;;;4975224;28;20041;-73
2023/03/03 12:14:55;;;;;;;31.50;14.23;;;7.50;99.90;;;;;;4975777;28;20037;-73
2023/03/03 12:17:55;;;;;;;32.87;15.30;;;7.60;99.90;;;;;;4993089;28;20027;-73
2023/03/03 12:20:38;;;;;;;30.48;15.23;;;7.80;99.90;;;;;;4939166;28;20034;-73
2023/03/03 12:23:19;;;;;;;30.48;14.98;;;8.00;99.90;;;;;;4975472;28;20053;-73
2023/03/03 12:26:06;;;;;;;32.08;15.52;;;8.10;99.90;;;;;;4974971;28;20463;-73
2023/03/03 12:28:39;;;;;;;32.95;15.73;;;8.30;99.90;;;;;;4994660;28;20030;-73
2023/03/03 12:31:08;;;;;;;33.28;15.10;;;8.50;99.90;;;;;;4979380;28;20022;-73
2023/03/03 12:33:49;;;;;;;31.13;15.38;;;8.70;99.90;;;;;;4979071;28;20037;-72
2023/03/03 12:36:29;;;;;;;31.25;15.15;;;8.90;99.90;;;;;;4979374;28;20042;-73
2023/03/03 12:39:17;;;;;;;31.02;14.80;;;9.20;99.70;;;;;;4978715;28;20083;-72
2023/03/03 12:41:54;;;;;;;32.58;15.02;;;9.50;98.80;;;;;;4996488;28;20023;-73
2023/03/03 12:44:42;;;;;;;35.30;15.88;;;9.60;97.50;;;;;;4979260;28;20026;-73
2023/03/03 12:47:07;;;;;;;28.73;14.23;;;9.80;97.00;;;;;;4979154;28;20557;-72
2023/03/03 12:50:14;;;;;;;35.92;15.30;;;10.00;96.10;;;;;;4979050;28;20069;-73
2023/03/03 12:52:51;;;;;;;30.23;14.93;;;10.30;95.80;;;;;;4978471;28;20058;-73
2023/03/03 12:55:45;;;;;;;30.58;15.57;;;10.40;94.50;;;;;;4996196;28;20515;-73
2023/03/03 12:58:38;;;;;;;32.13;15.27;;;10.60;94.30;;;;;;4978991;28;20019;-73
2023/03/03 13:01:27;;;;;;;30.75;15.32;;;10.80;93.40;;;;;;4996317;28;20031;-72
2023/03/03 13:04:03;;;;;;;36.67;15.40;;;11.20;92.60;;;;;;4995673;28;20026;-73
2023/03/03 13:06:33;;;;;;;32.60;16.33;;;11.90;91.80;;;;;;4978714;28;20034;-72